createdAt,value
2022-10-05T14:31:27.791Z,12.4
2022-10-05T14:36:27.686Z,12.6
2022-10-05T14:46:29.006Z,12.5
2022-10-05T14:56:27.724Z,12.5
2022-10-05T15:01:27.825Z,12.6
2022-10-05T15:11:27.717Z,12.5
2022-10-05T15:21:27.740Z,12.7
2022-10-05T15:31:27.710Z,12.7
2022-10-05T15:46:27.791Z,12.6
2022-10-05T15:51:27.709Z,12.7
2022-10-05T15:56:27.743Z,12.7
2022-10-05T16:06:27.785Z,12.7
2022-10-05T16:11:27.738Z,12.7
2022-10-05T16:21:27.720Z,12.8
2022-10-05T16:31:27.882Z,12.9
2022-10-05T16:36:27.724Z,13
2022-10-05T16:41:27.723Z,12.9
2022-10-05T16:46:28.205Z,13
2022-10-05T17:06:27.764Z,13
2022-10-05T17:11:27.750Z,13
2022-10-05T17:21:27.716Z,13.1
2022-10-05T17:26:27.752Z,13
2022-10-05T17:31:27.928Z,13.1
2022-10-05T17:41:27.720Z,13.1
2022-10-05T17:46:27.902Z,13.1
2022-10-05T17:51:27.748Z,13.2
2022-10-05T18:01:27.754Z,13.2
2022-10-05T18:06:27.896Z,13.1
2022-10-05T18:26:27.762Z,13.3
2022-10-05T18:36:27.752Z,13.2
2022-10-05T18:46:27.860Z,13.2
2022-10-05T18:51:27.770Z,13.2
2022-10-05T19:01:27.998Z,13.2
2022-10-05T19:11:27.815Z,13.1
2022-10-05T19:21:27.754Z,13.1
2022-10-05T19:26:27.756Z,13.1
2022-10-05T19:41:27.812Z,13.1
2022-10-05T19:51:27.784Z,13.2
2022-10-05T20:01:27.851Z,13.1
2022-10-05T20:06:27.775Z,13.1
2022-10-05T20:16:27.960Z,13.1
2022-10-05T20:26:27.823Z,13
2022-10-05T20:31:27.867Z,13.1
2022-10-05T20:41:27.777Z,13
2022-10-05T21:01:27.858Z,13.1
2022-10-05T21:06:27.787Z,13
2022-10-05T21:16:27.937Z,12.9
2022-10-05T21:21:27.804Z,13
2022-10-05T21:26:27.783Z,13
2022-10-05T21:36:27.812Z,13
2022-10-05T21:41:27.879Z,13
2022-10-05T21:51:27.814Z,13.1
2022-10-05T22:01:27.904Z,13
2022-10-05T22:16:27.856Z,13
2022-10-05T22:21:27.837Z,13
2022-10-05T22:31:27.887Z,13
2022-10-05T22:36:27.840Z,13
2022-10-05T22:46:27.912Z,12.9
2022-10-05T22:51:27.839Z,13
2022-10-05T23:01:27.903Z,12.9
2022-10-05T23:11:27.881Z,13.1
2022-10-05T23:16:27.971Z,13
2022-10-05T23:36:27.847Z,13
2022-10-05T23:41:27.832Z,13
2022-10-05T23:46:27.876Z,13
2022-10-05T23:56:27.887Z,13
